Hauptseite
METAR-TAF:

METAR-TAF

Flughäfen :

Leuchars, Schottland

Breite: 56-23N, Länge: 002-52W, Höhe: 12 m

Beobachtung

Neuester Wetterbericht von vor 28 Minuten, um 03:50 UTC
Wind 3 kt aus Nordwest
Temperatur -4°C
Luftfeuchtigkeit 93%
Luftdruck 1022 hPa
Sichtweite 10 km oder mehr
keine Wolken unter 1500 m und keine Kumulonimbus oder Gewitterwolken

METAR: EGQL 210350Z 31003KT CAVOK M04/M05 Q1022 BLU

Zeit: 04:18 (04:18 UTC)

Prognose

Neuester Wetterbericht von vor 2 Stunden und 44 Minuten, um 01:34 UTC
Gültige Prognose vom 21 um 03 UTC bis 21 um 12 UTC
Wind 6 kt aus West/Südwest
Sichtweite 10 km oder mehr
Leicht bewölkt in der Höhe von 4500 ft

TAF: EGQL 210134Z 2103/2112 24006KT 9999 FEW045

Wetterbeobachtungen und Prognosen von mehr als 4000 Flughäfen (METAR und TAF Bericht).

Die verfügbaren Stationen werden durch gelbe und rote Markierungen auf der Karte dargestellt.

Führen Sie die Maus auf sie, um den Namen der Station zu sehen.

Darauf klicken, um die Beobachtung von Wetterbeobachtungen und Prognosen zu sehen.

Um die Karte zu ändern : klicken Sie auf den grünen Tasten mit einem schwarzen Kreuz Zum Vergrößern, auf den grünen Button mit einem Gedankenstrich zu verkleinern, oder auf die grünen Pfeile für benachbarte Karten.


METAR-TAF: